createdAt,value
2019-01-12T00:01:23.582Z,22.25
2019-01-12T00:03:53.488Z,22.80
2019-01-12T00:06:23.182Z,28.87
2019-01-12T00:08:53.024Z,21.97
2019-01-12T00:11:22.636Z,21.55
2019-01-12T00:13:52.560Z,21.07
2019-01-12T00:16:23.346Z,22.00
2019-01-12T00:18:53.309Z,25.12
2019-01-12T00:21:22.959Z,23.40
2019-01-12T00:23:52.964Z,24.12
2019-01-12T00:26:22.535Z,22.40
2019-01-12T00:28:52.320Z,20.62
2019-01-12T00:31:22.004Z,21.60
2019-01-12T00:33:51.655Z,24.67
2019-01-12T00:36:21.209Z,21.48
2019-01-12T00:38:50.727Z,21.02
2019-01-12T00:41:20.390Z,22.20
2019-01-12T00:43:49.954Z,21.40
2019-01-12T00:46:19.576Z,19.70
2019-01-12T00:48:49.436Z,20.15
2019-01-12T00:51:19.037Z,20.75
2019-01-12T00:53:48.703Z,23.75
2019-01-12T00:56:18.656Z,20.23
2019-01-12T00:58:48.245Z,20.08
2019-01-12T01:01:18.101Z,19.70
2019-01-12T01:03:48.236Z,19.30
2019-01-12T01:06:18.361Z,24.00
2019-01-12T01:08:48.404Z,23.10
2019-01-12T01:11:18.119Z,21.23
2019-01-12T01:13:47.691Z,18.90
2019-01-12T01:16:17.417Z,19.85
2019-01-12T01:18:52.900Z,18.73
2019-01-12T01:21:22.575Z,16.73
2019-01-12T01:23:52.116Z,18.25
2019-01-12T01:26:21.868Z,18.65
2019-01-12T01:28:51.451Z,16.82
2019-01-12T01:31:21.196Z,18.80
2019-01-12T01:33:51.907Z,15.65
2019-01-12T01:36:22.013Z,17.87
2019-01-12T01:38:51.914Z,15.72
2019-01-12T01:41:21.436Z,17.98
2019-01-12T01:43:51.087Z,18.73
2019-01-12T01:46:20.707Z,20.15
2019-01-12T01:48:50.399Z,17.20
2019-01-12T01:51:20.409Z,16.20
2019-01-12T01:53:50.068Z,16.85
2019-01-12T01:56:19.648Z,19.23
2019-01-12T01:58:49.433Z,13.70
2019-01-12T02:01:19.003Z,13.28
2019-01-12T02:03:48.651Z,16.67
2019-01-12T02:06:18.286Z,15.05
2019-01-12T02:08:48.428Z,14.13
2019-01-12T02:11:18.062Z,16.10
2019-01-12T02:13:47.587Z,12.70
2019-01-12T02:16:17.584Z,21.05
2019-01-12T02:18:47.413Z,13.10
2019-01-12T02:21:17.025Z,15.20
2019-01-12T02:23:46.617Z,14.38
2019-01-12T02:26:17.620Z,13.32
2019-01-12T02:28:47.478Z,13.65
2019-01-12T02:31:17.139Z,14.50
2019-01-12T02:33:48.252Z,16.05
2019-01-12T02:36:17.928Z,16.52
2019-01-12T02:38:47.917Z,14.20
2019-01-12T02:41:17.495Z,14.23
2019-01-12T02:43:48.069Z,13.00
2019-01-12T02:46:17.811Z,14.75
2019-01-12T02:48:47.344Z,13.98
2019-01-12T02:51:17.092Z,12.30
2019-01-12T02:53:46.671Z,12.37
2019-01-12T02:56:16.328Z,16.10
2019-01-12T02:58:46.288Z,12.25
2019-01-12T03:01:15.940Z,12.80
2019-01-12T03:03:45.594Z,14.23
2019-01-12T03:06:16.211Z,12.73
2019-01-12T03:08:46.137Z,15.38
2019-01-12T03:11:15.797Z,14.40
2019-01-12T03:13:45.528Z,13.83
2019-01-12T03:16:15.494Z,13.88
2019-01-12T03:18:45.231Z,12.60
2019-01-12T03:21:14.797Z,12.88
2019-01-12T03:23:44.542Z,12.50
2019-01-12T03:26:14.445Z,12.37
2019-01-12T03:28:44.308Z,11.48
2019-01-12T03:31:14.100Z,11.68
2019-01-12T03:33:47.822Z,17.87
2019-01-12T03:36:17.456Z,13.00
2019-01-12T03:38:47.142Z,13.50
2019-01-12T03:41:16.729Z,13.28
2019-01-12T03:43:47.078Z,12.00
2019-01-12T03:46:16.746Z,11.93
2019-01-12T03:48:46.412Z,11.97
2019-01-12T03:51:16.041Z,12.68
2019-01-12T03:53:45.761Z,14.80
2019-01-12T03:56:15.409Z,11.85
2019-01-12T03:58:45.983Z,12.80
2019-01-12T04:01:15.566Z,10.70
2019-01-12T04:03:45.367Z,14.60
2019-01-12T04:06:14.908Z,16.23
2019-01-12T04:08:44.564Z,12.98
2019-01-12T04:11:14.195Z,13.03
2019-01-12T04:13:45.031Z,16.48
2019-01-12T04:16:14.631Z,14.60
2019-01-12T04:18:44.651Z,15.20
2019-01-12T04:21:14.212Z,11.33
2019-01-12T04:23:43.858Z,13.83
2019-01-12T04:26:14.434Z,13.83
2019-01-12T04:28:44.719Z,16.00
2019-01-12T04:31:14.338Z,14.90
2019-01-12T04:33:45.598Z,12.23
2019-01-12T04:36:15.206Z,15.48
2019-01-12T04:38:45.627Z,12.45
2019-01-12T04:41:16.242Z,19.02
2019-01-12T04:43:46.606Z,15.50
2019-01-12T04:46:16.269Z,10.88
2019-01-12T04:48:45.835Z,15.43
2019-01-12T04:51:15.525Z,14.43
2019-01-12T04:53:45.159Z,16.05
2019-01-12T04:56:14.807Z,16.00
2019-01-12T04:58:44.725Z,11.03
2019-01-12T05:01:14.383Z,10.72
2019-01-12T05:03:43.991Z,28.38
2019-01-12T05:06:14.141Z,19.92
2019-01-12T05:08:43.777Z,12.80
2019-01-12T05:11:13.471Z,13.72
2019-01-12T05:13:43.020Z,15.25
2019-01-12T05:16:13.068Z,15.28
2019-01-12T05:18:45.212Z,19.20
2019-01-12T05:21:14.802Z,19.95
2019-01-12T05:23:45.226Z,13.65
2019-01-12T05:26:14.737Z,14.25
2019-01-12T05:28:44.605Z,12.28
2019-01-12T05:31:14.188Z,13.55
2019-01-12T05:33:44.902Z,12.23
2019-01-12T05:36:14.813Z,12.95
2019-01-12T05:38:46.193Z,13.00
2019-01-12T05:41:15.767Z,12.07
2019-01-12T05:43:45.363Z,9.80
2019-01-12T05:46:15.031Z,13.05
2019-01-12T05:48:44.621Z,14.47
2019-01-12T05:51:15.358Z,13.70
2019-01-12T05:53:45.412Z,18.07
2019-01-12T05:56:15.023Z,12.07
2019-01-12T05:58:44.973Z,12.88
2019-01-12T06:01:14.739Z,15.80
2019-01-12T06:03:45.355Z,14.10
2019-01-12T06:06:15.253Z,13.75
2019-01-12T06:08:44.824Z,13.88
2019-01-12T06:11:14.602Z,15.28
2019-01-12T06:13:44.140Z,15.63
2019-01-12T06:16:13.814Z,16.77
2019-01-12T06:18:43.456Z,15.13
2019-01-12T06:21:13.101Z,16.73
2019-01-12T06:23:44.323Z,16.60
2019-01-12T06:26:13.949Z,16.32
2019-01-12T06:28:43.618Z,15.83
2019-01-12T06:31:13.307Z,14.38
2019-01-12T06:33:42.955Z,16.10
2019-01-12T06:36:12.681Z,18.45
2019-01-12T06:38:42.613Z,14.58
2019-01-12T06:41:12.243Z,13.98
2019-01-12T06:43:41.800Z,12.30
2019-01-12T06:46:11.603Z,13.50
2019-01-12T06:48:41.220Z,13.18
2019-01-12T06:51:10.932Z,19.85
2019-01-12T06:53:40.967Z,18.52
2019-01-12T06:56:10.965Z,11.85
2019-01-12T06:58:40.704Z,11.68
2019-01-12T07:01:10.325Z,12.53
2019-01-12T07:03:39.899Z,15.63
2019-01-12T07:06:09.493Z,12.20
2019-01-12T07:08:39.133Z,10.35
2019-01-12T07:11:08.712Z,12.13
2019-01-12T07:13:38.359Z,20.45
2019-01-12T07:16:07.950Z,10.70
2019-01-12T07:18:37.667Z,14.50
2019-01-12T07:21:07.236Z,10.97
2019-01-12T07:23:36.934Z,11.88
2019-01-12T07:26:06.626Z,14.30
2019-01-12T07:28:36.236Z,14.50
2019-01-12T07:31:06.176Z,15.32
2019-01-12T07:33:35.876Z,17.87
2019-01-12T07:36:05.844Z,13.18
2019-01-12T07:38:35.444Z,15.15
2019-01-12T07:41:05.401Z,13.93
2019-01-12T07:43:35.006Z,18.95
2019-01-12T07:46:04.733Z,14.20
2019-01-12T07:48:34.448Z,21.17
2019-01-12T07:51:04.091Z,14.58
2019-01-12T07:53:33.806Z,24.25
2019-01-12T07:56:03.561Z,12.75
2019-01-12T07:58:33.267Z,12.20
2019-01-12T08:01:03.026Z,15.63
2019-01-12T08:03:32.697Z,16.97
2019-01-12T08:06:02.609Z,12.23
2019-01-12T08:08:32.357Z,13.25
2019-01-12T08:11:02.018Z,15.53
2019-01-12T08:13:34.827Z,12.40
2019-01-12T08:16:04.580Z,12.58
2019-01-12T08:18:35.369Z,11.70
2019-01-12T08:21:05.298Z,15.03
2019-01-12T08:23:34.889Z,17.55
2019-01-12T08:26:04.728Z,12.00
2019-01-12T08:28:34.358Z,14.23
2019-01-12T08:31:04.091Z,14.25
2019-01-12T08:33:33.952Z,14.55
2019-01-12T08:36:03.847Z,13.28
2019-01-12T08:38:33.536Z,9.80
2019-01-12T08:41:03.122Z,11.10
2019-01-12T08:43:32.854Z,11.70
2019-01-12T08:46:03.662Z,13.78
2019-01-12T08:48:33.267Z,10.43
2019-01-12T08:51:03.411Z,14.43
2019-01-12T08:53:33.010Z,9.00
2019-01-12T08:56:02.673Z,9.53
2019-01-12T08:58:32.430Z,10.57
2019-01-12T09:01:12.747Z,12.07
2019-01-12T09:03:42.762Z,12.30
2019-01-12T09:06:12.403Z,10.18
2019-01-12T09:08:42.040Z,11.33
2019-01-12T09:11:11.604Z,9.53
2019-01-12T09:13:41.299Z,10.60
2019-01-12T09:16:10.852Z,17.37
2019-01-12T09:18:42.463Z,13.10
2019-01-12T09:21:13.112Z,13.30
2019-01-12T09:23:42.643Z,19.17
2019-01-12T09:26:12.266Z,14.83
2019-01-12T09:28:42.055Z,11.20
2019-01-12T09:31:11.602Z,18.30
2019-01-12T09:33:41.243Z,9.57
2019-01-12T09:36:11.045Z,9.53
2019-01-12T09:38:40.702Z,14.47
2019-01-12T09:41:10.347Z,16.97
2019-01-12T09:43:40.702Z,11.83
2019-01-12T09:46:10.314Z,9.50
2019-01-12T09:48:40.021Z,11.00
2019-01-12T09:51:09.551Z,13.80
2019-01-12T09:53:39.257Z,10.47
2019-01-12T09:56:08.921Z,10.60
2019-01-12T09:58:38.535Z,11.77
2019-01-12T10:01:08.197Z,9.53
2019-01-12T10:03:37.784Z,9.63
2019-01-12T10:06:07.562Z,11.80
2019-01-12T10:08:37.285Z,10.63
2019-01-12T10:11:06.822Z,12.93
2019-01-12T10:13:36.519Z,9.70
2019-01-12T10:16:06.096Z,11.37
2019-01-12T10:18:37.934Z,9.50
2019-01-12T10:21:07.572Z,12.83
2019-01-12T10:23:37.323Z,10.33
2019-01-12T10:26:06.964Z,10.43
2019-01-12T10:28:36.625Z,9.70
2019-01-12T10:31:06.236Z,9.50
2019-01-12T10:33:36.154Z,11.50
2019-01-12T10:36:06.192Z,11.10
2019-01-12T10:38:35.767Z,11.33
2019-01-12T10:41:05.544Z,11.00
2019-01-12T10:43:35.066Z,12.37
2019-01-12T10:46:04.704Z,12.33
2019-01-12T10:48:34.423Z,16.37
2019-01-12T10:51:04.507Z,10.30
2019-01-12T10:53:34.144Z,8.20
2019-01-12T10:56:03.799Z,11.57
2019-01-12T10:58:33.368Z,11.97
2019-01-12T11:01:03.361Z,13.80
2019-01-12T11:03:33.338Z,15.50
2019-01-12T11:06:03.032Z,11.40
2019-01-12T11:08:33.322Z,10.33
2019-01-12T11:11:02.890Z,8.93
2019-01-12T11:13:32.611Z,10.20
2019-01-12T11:16:02.345Z,9.70
2019-01-12T11:18:32.003Z,16.10
2019-01-12T11:21:02.193Z,13.30
2019-01-12T11:23:31.804Z,9.90
2019-01-12T11:26:02.924Z,10.57
2019-01-12T11:28:32.625Z,9.30
2019-01-12T11:31:02.690Z,11.10
2019-01-12T11:33:32.824Z,7.70
2019-01-12T11:36:02.544Z,9.70
2019-01-12T11:38:32.320Z,9.60
2019-01-12T11:41:01.993Z,8.27
2019-01-12T11:43:31.943Z,9.43
2019-01-12T11:46:01.607Z,14.13
2019-01-12T11:48:32.236Z,10.90
2019-01-12T11:51:13.658Z,10.13
2019-01-12T11:53:46.396Z,12.20
2019-01-12T11:56:16.042Z,8.87
2019-01-12T11:58:45.600Z,11.10
2019-01-12T12:01:15.286Z,12.50
2019-01-12T12:03:45.841Z,13.00
2019-01-12T12:06:16.586Z,11.67
2019-01-12T12:08:46.283Z,8.83
2019-01-12T12:11:16.071Z,13.57
2019-01-12T12:13:48.123Z,10.53
2019-01-12T12:16:19.062Z,9.13
2019-01-12T12:18:48.719Z,12.60
2019-01-12T12:21:18.330Z,7.00
2019-01-12T12:23:51.189Z,10.40
2019-01-12T12:26:21.776Z,11.40
2019-01-12T12:28:51.407Z,9.03
2019-01-12T12:31:21.034Z,9.53
2019-01-12T12:33:50.706Z,18.07
2019-01-12T12:36:20.441Z,9.20
2019-01-12T12:38:50.431Z,7.80
2019-01-12T12:41:21.159Z,12.17
2019-01-12T12:43:50.778Z,9.50
2019-01-12T12:46:20.999Z,8.97
2019-01-12T12:48:50.680Z,11.00
2019-01-12T12:51:20.522Z,8.40
2019-01-12T12:53:49.991Z,13.47
2019-01-12T12:56:19.688Z,8.10
2019-01-12T12:58:49.376Z,13.17
2019-01-12T13:01:19.105Z,9.13
2019-01-12T13:03:48.602Z,11.30
2019-01-12T13:06:18.368Z,9.60
2019-01-12T13:08:52.520Z,13.20
2019-01-12T13:11:22.247Z,10.50
2019-01-12T13:13:51.830Z,11.50
2019-01-12T13:16:21.752Z,9.63
2019-01-12T13:18:51.443Z,7.20
2019-01-12T13:21:21.037Z,9.50
2019-01-12T13:23:51.128Z,12.73
2019-01-12T13:26:20.732Z,7.93
2019-01-12T13:28:50.340Z,8.23
2019-01-12T13:31:20.042Z,48.70
2019-01-12T13:33:49.667Z,9.73
2019-01-12T13:36:19.349Z,7.83
2019-01-12T13:38:48.988Z,10.63
2019-01-12T13:41:19.267Z,8.73
2019-01-12T13:43:49.011Z,11.30
2019-01-12T13:46:18.553Z,24.60
2019-01-12T13:48:48.174Z,13.60
2019-01-12T13:51:17.765Z,8.10
2019-01-12T13:53:47.391Z,9.30
2019-01-12T13:56:17.235Z,8.70
2019-01-12T13:58:47.019Z,9.73
2019-01-12T14:01:17.737Z,10.50
2019-01-12T14:03:50.224Z,8.07
2019-01-12T14:06:19.862Z,12.53
2019-01-12T14:08:49.443Z,10.07
2019-01-12T14:11:19.127Z,9.70
2019-01-12T14:13:48.803Z,11.43
2019-01-12T14:16:18.473Z,13.60
2019-01-12T14:18:48.424Z,9.50
2019-01-12T14:21:18.204Z,10.40
2019-01-12T14:23:52.299Z,10.73
2019-01-12T14:26:21.990Z,10.40
2019-01-12T14:28:51.615Z,13.97
2019-01-12T14:31:21.204Z,10.60
2019-01-12T14:33:50.819Z,9.43
2019-01-12T14:36:20.396Z,10.10
2019-01-12T14:38:50.125Z,12.63
2019-01-12T14:41:19.791Z,9.30
2019-01-12T14:43:49.436Z,10.33
2019-01-12T14:46:18.995Z,13.50
2019-01-12T14:48:48.535Z,11.17
2019-01-12T14:51:18.485Z,9.40
2019-01-12T14:53:49.030Z,10.97
2019-01-12T14:56:19.678Z,12.20
2019-01-12T14:58:49.868Z,12.97
2019-01-12T15:01:19.562Z,11.47
2019-01-12T15:03:49.146Z,9.73
2019-01-12T15:06:18.946Z,11.00
2019-01-12T15:08:48.487Z,9.73
2019-01-12T15:11:18.450Z,10.67
2019-01-12T15:13:48.069Z,11.73
2019-01-12T15:16:17.830Z,13.13
2019-01-12T15:18:47.428Z,12.40
2019-01-12T15:21:16.975Z,12.10
2019-01-12T15:23:47.709Z,20.60
2019-01-12T15:26:19.204Z,12.13
2019-01-12T15:28:49.172Z,15.20
2019-01-12T15:31:19.293Z,9.40
2019-01-12T15:33:48.966Z,11.90
2019-01-12T15:36:19.578Z,18.50
2019-01-12T15:38:50.555Z,13.17
2019-01-12T15:41:20.230Z,10.93
2019-01-12T15:43:49.959Z,11.60
2019-01-12T15:46:19.589Z,12.03
2019-01-12T15:48:49.210Z,11.00
2019-01-12T15:51:18.796Z,13.33
2019-01-12T15:53:48.399Z,16.93
2019-01-12T15:56:17.947Z,15.27
2019-01-12T15:58:48.373Z,20.97
2019-01-12T16:01:18.011Z,14.53
2019-01-12T16:03:47.673Z,11.33
2019-01-12T16:06:17.318Z,12.57
2019-01-12T16:08:46.827Z,12.77
2019-01-12T16:11:16.527Z,20.83
2019-01-12T16:13:46.078Z,16.30
2019-01-12T16:16:15.779Z,14.93
2019-01-12T16:18:46.505Z,16.73
2019-01-12T16:21:16.175Z,12.60
2019-01-12T16:23:45.810Z,10.50
2019-01-12T16:26:15.524Z,16.70
2019-01-12T16:28:45.189Z,14.83
2019-01-12T16:31:14.934Z,10.70
2019-01-12T16:33:47.634Z,11.27
2019-01-12T16:36:17.560Z,15.20
2019-01-12T16:38:51.425Z,10.93
2019-01-12T16:41:21.186Z,12.33
2019-01-12T16:43:50.801Z,15.50
2019-01-12T16:46:20.528Z,12.20
2019-01-12T16:48:50.090Z,12.47
2019-01-12T16:51:19.740Z,11.03
2019-01-12T16:53:49.327Z,12.47
2019-01-12T16:56:18.887Z,12.73
2019-01-12T16:58:49.506Z,13.20
2019-01-12T17:01:19.107Z,14.40
2019-01-12T17:03:48.844Z,9.83
2019-01-12T17:06:18.346Z,9.30
2019-01-12T17:08:51.051Z,12.90
2019-01-12T17:11:20.697Z,11.90
2019-01-12T17:13:51.339Z,11.83
2019-01-12T17:16:21.030Z,15.07
2019-01-12T17:18:53.334Z,10.90
2019-01-12T17:21:22.918Z,10.20
2019-01-12T17:23:52.655Z,14.37
2019-01-12T17:26:22.282Z,13.50
2019-01-12T17:28:51.970Z,10.37
2019-01-12T17:31:21.868Z,12.00
2019-01-12T17:33:52.766Z,10.33
2019-01-12T17:36:22.524Z,9.27
2019-01-12T17:38:52.147Z,11.50
2019-01-12T17:41:21.781Z,11.40
2019-01-12T17:43:51.410Z,11.10
2019-01-12T17:46:21.114Z,10.43
2019-01-12T17:48:50.724Z,8.57
2019-01-12T17:51:20.640Z,9.93
2019-01-12T17:53:50.197Z,8.43
2019-01-12T17:56:20.228Z,59.47
2019-01-12T17:58:49.897Z,11.50
2019-01-12T18:01:19.483Z,12.20
2019-01-12T18:03:49.204Z,7.50
2019-01-12T18:06:18.815Z,9.37
2019-01-12T18:08:49.400Z,11.43
2019-01-12T18:11:19.125Z,7.77
2019-01-12T18:13:48.738Z,8.60
2019-01-12T18:16:18.314Z,7.77
2019-01-12T18:18:47.950Z,6.57
2019-01-12T18:21:17.537Z,9.37
2019-01-12T18:23:47.110Z,12.93
2019-01-12T18:26:17.780Z,9.47
2019-01-12T18:28:51.605Z,10.83
2019-01-12T18:31:19.918Z,11.03
2019-01-12T18:33:49.605Z,11.50
2019-01-12T18:36:19.264Z,11.83
2019-01-12T18:38:48.952Z,10.43
2019-01-12T18:41:19.587Z,10.67
2019-01-12T18:43:49.302Z,15.00
2019-01-12T18:46:19.602Z,13.13
2019-01-12T18:48:49.219Z,21.83
2019-01-12T18:51:18.858Z,14.73
2019-01-12T18:53:48.550Z,19.83
2019-01-12T18:56:18.179Z,16.27
2019-01-12T18:58:50.496Z,13.17
2019-01-12T19:01:20.188Z,14.67
2019-01-12T19:03:49.791Z,13.17
2019-01-12T19:06:19.416Z,15.63
2019-01-12T19:08:49.051Z,14.50
2019-01-12T19:11:18.653Z,15.87
2019-01-12T19:13:48.428Z,14.47
2019-01-12T19:16:18.136Z,13.13
2019-01-12T19:18:48.202Z,13.25
2019-01-12T19:21:17.833Z,16.87
2019-01-12T19:23:47.490Z,16.60
2019-01-12T19:26:17.090Z,16.63
2019-01-12T19:28:52.078Z,17.77
2019-01-12T19:31:22.710Z,11.13
2019-01-12T19:33:53.231Z,11.70
2019-01-12T19:36:22.844Z,14.30
2019-01-12T19:38:52.469Z,11.53
2019-01-12T19:41:22.083Z,11.13
2019-01-12T19:43:51.807Z,9.05
2019-01-12T19:46:21.390Z,13.30
2019-01-12T19:48:51.402Z,13.67
2019-01-12T19:51:21.291Z,8.07
2019-01-12T19:53:50.988Z,10.00
2019-01-12T19:56:20.550Z,8.27
2019-01-12T19:58:50.235Z,8.20
2019-01-12T20:01:19.888Z,7.47
2019-01-12T20:03:49.443Z,9.45
2019-01-12T20:06:19.078Z,6.00
2019-01-12T20:08:52.583Z,7.97
2019-01-12T20:11:22.229Z,8.00
2019-01-12T20:13:52.795Z,8.13
2019-01-12T20:16:22.833Z,7.75
2019-01-12T20:18:53.011Z,7.42
2019-01-12T20:21:22.584Z,7.75
2019-01-12T20:23:52.134Z,6.62
2019-01-12T20:26:21.767Z,7.92
2019-01-12T20:28:51.340Z,10.43
2019-01-12T20:31:50.635Z,6.45
2019-01-12T20:34:37.487Z,8.55
2019-01-12T20:38:09.409Z,6.40
2019-01-12T20:41:16.551Z,7.58
2019-01-12T20:44:31.854Z,7.43
2019-01-12T20:47:18.087Z,5.15
2019-01-12T20:50:25.958Z,8.20
2019-01-12T20:53:27.831Z,7.27
2019-01-12T20:56:35.007Z,6.10
2019-01-12T20:59:44.807Z,5.13
2019-01-12T21:02:46.143Z,5.07
2019-01-12T21:05:25.434Z,5.70
2019-01-12T21:08:33.820Z,4.45
2019-01-12T21:11:51.987Z,5.03
2019-01-12T21:14:47.467Z,6.20
2019-01-12T21:17:18.379Z,3.33
2019-01-12T21:19:48.597Z,5.77
2019-01-12T21:22:18.285Z,8.20
2019-01-12T21:24:47.955Z,5.60
2019-01-12T21:27:17.645Z,4.20
2019-01-12T21:29:47.309Z,2.97
2019-01-12T21:32:16.897Z,3.12
2019-01-12T21:34:46.438Z,3.20
2019-01-12T21:37:16.122Z,2.70
2019-01-12T21:39:45.750Z,3.10
2019-01-12T21:42:15.382Z,3.52
2019-01-12T21:44:44.947Z,5.72
2019-01-12T21:47:14.537Z,5.17
2019-01-12T21:49:45.084Z,4.55
2019-01-12T21:52:15.733Z,3.10
2019-01-12T21:54:45.291Z,3.33
2019-01-12T21:57:14.939Z,3.30
2019-01-12T21:59:44.565Z,3.50
2019-01-12T22:02:14.261Z,3.25
2019-01-12T22:04:44.851Z,3.98
2019-01-12T22:07:14.393Z,4.60
2019-01-12T22:09:44.072Z,4.45
2019-01-12T22:12:14.738Z,3.72
2019-01-12T22:14:44.554Z,5.28
2019-01-12T22:17:14.167Z,3.12
2019-01-12T22:19:43.787Z,3.40
2019-01-12T22:22:13.514Z,2.52
2019-01-12T22:24:43.301Z,3.10
2019-01-12T22:27:12.878Z,2.80
2019-01-12T22:29:49.612Z,3.25
2019-01-12T22:32:13.696Z,4.62
2019-01-12T22:34:43.393Z,4.53
2019-01-12T22:37:13.085Z,2.67
2019-01-12T22:39:42.684Z,2.65
2019-01-12T22:42:12.743Z,2.42
2019-01-12T22:44:42.350Z,2.42
2019-01-12T22:47:12.000Z,3.77
2019-01-12T22:49:41.611Z,2.33
2019-01-12T22:52:11.204Z,6.27
2019-01-12T22:54:40.790Z,2.35
2019-01-12T22:57:10.439Z,1.35
2019-01-12T22:59:40.009Z,1.42
2019-01-12T23:02:10.350Z,4.92
2019-01-12T23:04:42.321Z,1.65
2019-01-12T23:07:13.900Z,1.60
2019-01-12T23:09:44.493Z,2.45
2019-01-12T23:12:14.258Z,1.70
2019-01-12T23:14:43.804Z,1.92
2019-01-12T23:17:13.511Z,1.57
2019-01-12T23:19:43.035Z,1.80
2019-01-12T23:22:12.607Z,1.50
2019-01-12T23:24:42.638Z,2.17
2019-01-12T23:27:12.200Z,5.00
2019-01-12T23:29:41.800Z,1.62
2019-01-12T23:32:11.398Z,1.27
2019-01-12T23:34:41.017Z,1.17
2019-01-12T23:37:10.679Z,1.30
2019-01-12T23:39:40.348Z,1.20
2019-01-12T23:42:10.224Z,1.42
2019-01-12T23:44:39.844Z,1.57
2019-01-12T23:47:09.443Z,1.50
2019-01-12T23:49:39.087Z,2.20
2019-01-12T23:52:08.828Z,1.05
2019-01-12T23:54:38.549Z,1.37
2019-01-12T23:57:08.215Z,1.57
2019-01-12T23:59:37.933Z,1.20
